Country
Station

 

Weather  for  Sdr Stroemfjord  -  Greenland    Greenland

  
16 °C (61 °F)
    
 
 

Current METAR for Sdr Stroemfjord is :

BGSF 201950Z AUTO 24008KT 9999NDV FEW230/// 16/06 Q1008

 

This is a report for Sdr Stroemfjord - Greenland.
 
The report was made 30 minutes ago, at 19:50 UTC .
The wind was blowing at a speed of 4.1 meters per second (9.2 miles per hour) from west/southwest (240°).
 
The temperature was 16 °C (61 °F), with a dew-point at 6 °C (43 °F).
The atmospheric pressure was 1008 hPa (29.77 inHg).
The relative humidity was 51.4%.
 

 
 
 
 

Country :   A   B   C   D   E   F   G   H   I   J   K   L   M   N   O   P   Q   R   S   T   U   V   W   Y   Z

 

Site Info  |  Disclaimer  |  Credits  |  Privacy
Contact us  |  Add to favorites
© 2013-2019 METARs - All rights reserved